sensor_id;sensor_type;location;lat;lon;timestamp;temperature;humidity
66710;DHT22;53624;0.000;0.000;2023-03-09T00:02:06;11.00;99.90
66710;DHT22;53624;0.000;0.000;2023-03-09T00:04:35;10.90;99.90
66710;DHT22;53624;0.000;0.000;2023-03-09T00:07:03;10.90;99.90
66710;DHT22;53624;0.000;0.000;2023-03-09T00:09:32;11.00;99.90
66710;DHT22;53624;0.000;0.000;2023-03-09T00:12:00;10.90;99.90
66710;DHT22;53624;0.000;0.000;2023-03-09T00:14:27;10.90;99.90
66710;DHT22;53624;0.000;0.000;2023-03-09T00:16:55;10.90;99.90
66710;DHT22;53624;0.000;0.000;2023-03-09T00:19:22;10.90;99.90
66710;DHT22;53624;0.000;0.000;2023-03-09T00:21:53;11.00;99.90
66710;DHT22;53624;0.000;0.000;2023-03-09T00:24:21;10.90;99.90
66710;DHT22;53624;0.000;0.000;2023-03-09T00:26:52;11.00;99.90
66710;DHT22;53624;0.000;0.000;2023-03-09T00:29:20;11.00;99.90
66710;DHT22;53624;0.000;0.000;2023-03-09T00:31:48;11.00;99.90
66710;DHT22;53624;0.000;0.000;2023-03-09T00:34:16;10.90;99.90
66710;DHT22;53624;0.000;0.000;2023-03-09T00:36:43;10.90;99.90
66710;DHT22;53624;0.000;0.000;2023-03-09T00:39:12;10.90;99.90
66710;DHT22;53624;0.000;0.000;2023-03-09T00:41:40;10.90;99.90
66710;DHT22;53624;0.000;0.000;2023-03-09T00:44:09;10.90;99.90
66710;DHT22;53624;0.000;0.000;2023-03-09T00:46:37;10.90;99.90
66710;DHT22;53624;0.000;0.000;2023-03-09T00:49:05;10.90;99.90
66710;DHT22;53624;0.000;0.000;2023-03-09T00:51:33;10.90;99.90
66710;DHT22;53624;0.000;0.000;2023-03-09T00:54:02;10.90;99.90
66710;DHT22;53624;0.000;0.000;2023-03-09T00:56:30;10.90;99.90
66710;DHT22;53624;0.000;0.000;2023-03-09T00:58:58;10.90;99.90
66710;DHT22;53624;0.000;0.000;2023-03-09T01:01:27;10.90;99.90
66710;DHT22;53624;0.000;0.000;2023-03-09T01:03:54;10.90;99.90
66710;DHT22;53624;0.000;0.000;2023-03-09T01:06:22;10.90;99.90
66710;DHT22;53624;0.000;0.000;2023-03-09T01:08:51;10.90;99.90
66710;DHT22;53624;0.000;0.000;2023-03-09T01:11:18;10.90;99.90
66710;DHT22;53624;0.000;0.000;2023-03-09T01:13:46;10.90;99.90
66710;DHT22;53624;0.000;0.000;2023-03-09T01:16:14;10.80;99.90
66710;DHT22;53624;0.000;0.000;2023-03-09T01:18:43;10.80;99.90
66710;DHT22;53624;0.000;0.000;2023-03-09T01:21:11;10.80;99.90
66710;DHT22;53624;0.000;0.000;2023-03-09T01:23:38;10.80;99.90
66710;DHT22;53624;0.000;0.000;2023-03-09T01:26:06;10.80;99.90
66710;DHT22;53624;0.000;0.000;2023-03-09T01:28:36;10.80;99.90
66710;DHT22;53624;0.000;0.000;2023-03-09T01:31:07;10.80;99.90
66710;DHT22;53624;0.000;0.000;2023-03-09T01:33:35;10.80;99.90
66710;DHT22;53624;0.000;0.000;2023-03-09T01:36:05;10.80;99.90
66710;DHT22;53624;0.000;0.000;2023-03-09T01:38:33;10.80;99.90
66710;DHT22;53624;0.000;0.000;2023-03-09T01:41:01;10.80;99.90
66710;DHT22;53624;0.000;0.000;2023-03-09T01:43:30;10.80;99.90
66710;DHT22;53624;0.000;0.000;2023-03-09T01:48:47;10.70;99.90
66710;DHT22;53624;0.000;0.000;2023-03-09T01:51:16;10.70;99.90
66710;DHT22;53624;0.000;0.000;2023-03-09T01:53:44;10.70;99.90
66710;DHT22;53624;0.000;0.000;2023-03-09T01:56:12;10.70;99.90
66710;DHT22;53624;0.000;0.000;2023-03-09T01:58:41;10.70;99.90
66710;DHT22;53624;0.000;0.000;2023-03-09T02:01:10;10.70;99.90
66710;DHT22;53624;0.000;0.000;2023-03-09T02:03:39;10.70;99.90
66710;DHT22;53624;0.000;0.000;2023-03-09T02:06:10;10.70;99.90
66710;DHT22;53624;0.000;0.000;2023-03-09T02:08:41;10.70;99.90
66710;DHT22;53624;0.000;0.000;2023-03-09T02:11:12;10.70;99.90
66710;DHT22;53624;0.000;0.000;2023-03-09T02:13:42;10.70;99.90
66710;DHT22;53624;0.000;0.000;2023-03-09T02:16:10;10.60;99.90
66710;DHT22;53624;0.000;0.000;2023-03-09T02:18:37;10.60;99.90
66710;DHT22;53624;0.000;0.000;2023-03-09T02:21:07;10.60;99.90
66710;DHT22;53624;0.000;0.000;2023-03-09T02:23:38;10.60;99.90
66710;DHT22;53624;0.000;0.000;2023-03-09T02:26:11;10.60;99.90
66710;DHT22;53624;0.000;0.000;2023-03-09T02:28:43;10.60;99.90
66710;DHT22;53624;0.000;0.000;2023-03-09T02:31:11;10.60;99.90
66710;DHT22;53624;0.000;0.000;2023-03-09T02:33:40;10.60;99.90
66710;DHT22;53624;0.000;0.000;2023-03-09T02:36:08;10.60;99.90
66710;DHT22;53624;0.000;0.000;2023-03-09T02:38:39;10.60;99.90
66710;DHT22;53624;0.000;0.000;2023-03-09T02:41:08;10.50;99.90
66710;DHT22;53624;0.000;0.000;2023-03-09T02:43:37;10.50;99.90
66710;DHT22;53624;0.000;0.000;2023-03-09T02:46:08;10.50;99.90
66710;DHT22;53624;0.000;0.000;2023-03-09T02:48:39;10.50;99.90
66710;DHT22;53624;0.000;0.000;2023-03-09T02:51:06;10.50;99.90
66710;DHT22;53624;0.000;0.000;2023-03-09T02:53:34;10.50;99.90
66710;DHT22;53624;0.000;0.000;2023-03-09T02:56:02;10.50;99.90
66710;DHT22;53624;0.000;0.000;2023-03-09T02:58:32;10.50;99.90
66710;DHT22;53624;0.000;0.000;2023-03-09T03:00:59;10.50;99.90
66710;DHT22;53624;0.000;0.000;2023-03-09T03:03:30;10.50;99.90
66710;DHT22;53624;0.000;0.000;2023-03-09T03:05:58;10.50;99.90
66710;DHT22;53624;0.000;0.000;2023-03-09T03:08:25;10.40;99.90
66710;DHT22;53624;0.000;0.000;2023-03-09T03:10:53;10.50;99.90
66710;DHT22;53624;0.000;0.000;2023-03-09T03:13:21;10.40;99.90
66710;DHT22;53624;0.000;0.000;2023-03-09T03:15:49;10.40;99.90
66710;DHT22;53624;0.000;0.000;2023-03-09T03:18:16;10.40;99.90
66710;DHT22;53624;0.000;0.000;2023-03-09T03:20:45;10.40;99.90
66710;DHT22;53624;0.000;0.000;2023-03-09T03:23:14;10.40;99.90
66710;DHT22;53624;0.000;0.000;2023-03-09T03:25:48;10.40;99.90
66710;DHT22;53624;0.000;0.000;2023-03-09T03:28:16;10.40;99.90
66710;DHT22;53624;0.000;0.000;2023-03-09T03:30:49;10.40;99.90
66710;DHT22;53624;0.000;0.000;2023-03-09T03:33:17;10.30;99.90
66710;DHT22;53624;0.000;0.000;2023-03-09T03:35:46;10.30;99.90
66710;DHT22;53624;0.000;0.000;2023-03-09T03:38:14;10.30;99.90
66710;DHT22;53624;0.000;0.000;2023-03-09T03:40:41;10.30;99.90
66710;DHT22;53624;0.000;0.000;2023-03-09T03:43:10;10.30;99.90
66710;DHT22;53624;0.000;0.000;2023-03-09T03:45:40;10.30;99.90
66710;DHT22;53624;0.000;0.000;2023-03-09T03:48:09;10.30;99.90
66710;DHT22;53624;0.000;0.000;2023-03-09T03:50:37;10.30;99.90
66710;DHT22;53624;0.000;0.000;2023-03-09T03:53:06;10.30;99.90
66710;DHT22;53624;0.000;0.000;2023-03-09T03:55:33;10.30;99.90
66710;DHT22;53624;0.000;0.000;2023-03-09T03:58:02;10.30;99.90
66710;DHT22;53624;0.000;0.000;2023-03-09T04:00:31;10.20;99.90
66710;DHT22;53624;0.000;0.000;2023-03-09T04:03:02;10.20;99.90
66710;DHT22;53624;0.000;0.000;2023-03-09T04:05:39;10.20;99.90
66710;DHT22;53624;0.000;0.000;2023-03-09T04:08:08;10.20;99.90
66710;DHT22;53624;0.000;0.000;2023-03-09T04:10:37;10.20;99.90
66710;DHT22;53624;0.000;0.000;2023-03-09T04:13:05;10.20;99.90
66710;DHT22;53624;0.000;0.000;2023-03-09T04:15:33;10.20;99.90
66710;DHT22;53624;0.000;0.000;2023-03-09T04:18:01;10.20;99.90
66710;DHT22;53624;0.000;0.000;2023-03-09T04:20:32;10.20;99.90
66710;DHT22;53624;0.000;0.000;2023-03-09T04:22:59;10.10;99.90
66710;DHT22;53624;0.000;0.000;2023-03-09T04:25:29;10.20;99.90
66710;DHT22;53624;0.000;0.000;2023-03-09T04:27:57;10.20;99.90
66710;DHT22;53624;0.000;0.000;2023-03-09T04:30:30;10.10;99.90
66710;DHT22;53624;0.000;0.000;2023-03-09T04:32:59;10.10;99.90
66710;DHT22;53624;0.000;0.000;2023-03-09T04:35:27;10.10;99.90
66710;DHT22;53624;0.000;0.000;2023-03-09T04:37:57;10.10;99.90
66710;DHT22;53624;0.000;0.000;2023-03-09T04:40:25;10.10;99.90
66710;DHT22;53624;0.000;0.000;2023-03-09T04:42:57;10.10;99.90
66710;DHT22;53624;0.000;0.000;2023-03-09T04:45:25;10.10;99.90
66710;DHT22;53624;0.000;0.000;2023-03-09T04:47:54;10.00;99.90
66710;DHT22;53624;0.000;0.000;2023-03-09T04:50:23;10.10;99.90
66710;DHT22;53624;0.000;0.000;2023-03-09T04:52:55;10.00;99.90
66710;DHT22;53624;0.000;0.000;2023-03-09T04:55:24;10.00;99.90
66710;DHT22;53624;0.000;0.000;2023-03-09T04:57:57;10.00;99.90
66710;DHT22;53624;0.000;0.000;2023-03-09T05:00:24;10.00;99.90
66710;DHT22;53624;0.000;0.000;2023-03-09T05:02:52;10.00;99.90
66710;DHT22;53624;0.000;0.000;2023-03-09T05:05:21;10.00;99.90
66710;DHT22;53624;0.000;0.000;2023-03-09T05:07:52;10.00;99.90
66710;DHT22;53624;0.000;0.000;2023-03-09T05:10:20;10.00;99.90
66710;DHT22;53624;0.000;0.000;2023-03-09T05:12:50;10.00;99.90
66710;DHT22;53624;0.000;0.000;2023-03-09T05:15:23;10.00;99.90
66710;DHT22;53624;0.000;0.000;2023-03-09T05:17:51;10.00;99.90
66710;DHT22;53624;0.000;0.000;2023-03-09T05:20:19;10.00;99.90
66710;DHT22;53624;0.000;0.000;2023-03-09T05:22:52;10.00;99.90
66710;DHT22;53624;0.000;0.000;2023-03-09T05:25:20;9.90;99.90
66710;DHT22;53624;0.000;0.000;2023-03-09T05:27:48;9.90;99.90
66710;DHT22;53624;0.000;0.000;2023-03-09T05:30:16;9.90;99.90
66710;DHT22;53624;0.000;0.000;2023-03-09T05:32:46;9.90;99.90
66710;DHT22;53624;0.000;0.000;2023-03-09T05:35:17;9.90;99.90
66710;DHT22;53624;0.000;0.000;2023-03-09T05:37:45;9.90;99.90
66710;DHT22;53624;0.000;0.000;2023-03-09T05:40:17;9.90;99.90
66710;DHT22;53624;0.000;0.000;2023-03-09T05:42:50;9.90;99.90
66710;DHT22;53624;0.000;0.000;2023-03-09T05:45:18;9.90;99.90
66710;DHT22;53624;0.000;0.000;2023-03-09T05:47:46;9.90;99.90
66710;DHT22;53624;0.000;0.000;2023-03-09T05:50:14;9.90;99.90
66710;DHT22;53624;0.000;0.000;2023-03-09T05:52:42;9.90;99.90
66710;DHT22;53624;0.000;0.000;2023-03-09T05:55:10;9.90;99.90
66710;DHT22;53624;0.000;0.000;2023-03-09T05:57:41;9.80;99.90
66710;DHT22;53624;0.000;0.000;2023-03-09T06:00:10;9.80;99.90
66710;DHT22;53624;0.000;0.000;2023-03-09T06:02:46;9.80;99.90
66710;DHT22;53624;0.000;0.000;2023-03-09T06:05:19;9.80;99.90
66710;DHT22;53624;0.000;0.000;2023-03-09T06:07:47;9.80;99.90
66710;DHT22;53624;0.000;0.000;2023-03-09T06:10:18;9.80;99.90
66710;DHT22;53624;0.000;0.000;2023-03-09T06:12:46;9.80;99.90
66710;DHT22;53624;0.000;0.000;2023-03-09T06:15:14;9.80;99.90
66710;DHT22;53624;0.000;0.000;2023-03-09T06:17:42;9.80;99.90
66710;DHT22;53624;0.000;0.000;2023-03-09T06:20:16;9.80;99.90
66710;DHT22;53624;0.000;0.000;2023-03-09T06:22:48;9.80;99.90
66710;DHT22;53624;0.000;0.000;2023-03-09T06:25:17;9.80;99.90
66710;DHT22;53624;0.000;0.000;2023-03-09T06:27:46;9.90;99.90
66710;DHT22;53624;0.000;0.000;2023-03-09T06:30:17;9.90;99.90
66710;DHT22;53624;0.000;0.000;2023-03-09T06:32:45;9.90;99.90
66710;DHT22;53624;0.000;0.000;2023-03-09T06:35:13;9.90;99.90
66710;DHT22;53624;0.000;0.000;2023-03-09T06:37:43;9.90;99.90
66710;DHT22;53624;0.000;0.000;2023-03-09T06:40:11;9.90;99.90
66710;DHT22;53624;0.000;0.000;2023-03-09T06:42:39;9.90;99.90
66710;DHT22;53624;0.000;0.000;2023-03-09T06:45:08;9.90;99.90
66710;DHT22;53624;0.000;0.000;2023-03-09T06:47:35;9.90;99.90
66710;DHT22;53624;0.000;0.000;2023-03-09T06:50:07;9.90;99.90
66710;DHT22;53624;0.000;0.000;2023-03-09T06:52:37;9.90;99.90
66710;DHT22;53624;0.000;0.000;2023-03-09T06:55:08;9.90;99.90
66710;DHT22;53624;0.000;0.000;2023-03-09T06:57:38;10.00;99.90
66710;DHT22;53624;0.000;0.000;2023-03-09T07:00:06;9.90;99.90
66710;DHT22;53624;0.000;0.000;2023-03-09T07:02:36;10.00;99.90
66710;DHT22;53624;0.000;0.000;2023-03-09T07:05:03;10.00;99.90
66710;DHT22;53624;0.000;0.000;2023-03-09T07:07:32;10.00;99.90
66710;DHT22;53624;0.000;0.000;2023-03-09T07:10:00;10.00;99.90
66710;DHT22;53624;0.000;0.000;2023-03-09T07:12:29;10.00;99.90
66710;DHT22;53624;0.000;0.000;2023-03-09T07:14:56;10.10;99.90
66710;DHT22;53624;0.000;0.000;2023-03-09T07:17:24;10.10;99.90
66710;DHT22;53624;0.000;0.000;2023-03-09T07:19:52;10.10;99.90
66710;DHT22;53624;0.000;0.000;2023-03-09T07:22:19;10.10;99.90
66710;DHT22;53624;0.000;0.000;2023-03-09T07:24:47;10.10;99.90
66710;DHT22;53624;0.000;0.000;2023-03-09T07:27:14;10.10;99.90
66710;DHT22;53624;0.000;0.000;2023-03-09T07:29:46;10.10;99.90
66710;DHT22;53624;0.000;0.000;2023-03-09T07:32:14;10.10;99.90
66710;DHT22;53624;0.000;0.000;2023-03-09T07:34:42;10.20;99.90
66710;DHT22;53624;0.000;0.000;2023-03-09T07:37:10;10.20;99.90
66710;DHT22;53624;0.000;0.000;2023-03-09T07:39:38;10.20;99.90
66710;DHT22;53624;0.000;0.000;2023-03-09T07:42:06;10.20;99.90
66710;DHT22;53624;0.000;0.000;2023-03-09T07:44:51;10.20;99.90
66710;DHT22;53624;0.000;0.000;2023-03-09T07:47:18;10.30;99.90
66710;DHT22;53624;0.000;0.000;2023-03-09T07:49:48;10.30;99.90
66710;DHT22;53624;0.000;0.000;2023-03-09T07:52:16;10.40;99.90
66710;DHT22;53624;0.000;0.000;2023-03-09T07:54:43;10.40;99.90
66710;DHT22;53624;0.000;0.000;2023-03-09T07:57:11;10.50;99.90
66710;DHT22;53624;0.000;0.000;2023-03-09T07:59:38;10.60;99.90
66710;DHT22;53624;0.000;0.000;2023-03-09T08:02:07;10.60;99.90
66710;DHT22;53624;0.000;0.000;2023-03-09T08:04:35;10.70;99.90
66710;DHT22;53624;0.000;0.000;2023-03-09T08:07:03;10.80;99.90
66710;DHT22;53624;0.000;0.000;2023-03-09T08:09:30;10.90;99.90
66710;DHT22;53624;0.000;0.000;2023-03-09T08:11:58;11.10;99.70
66710;DHT22;53624;0.000;0.000;2023-03-09T08:14:25;11.30;99.40
66710;DHT22;53624;0.000;0.000;2023-03-09T08:16:53;11.60;98.80
66710;DHT22;53624;0.000;0.000;2023-03-09T08:19:22;11.70;98.60
66710;DHT22;53624;0.000;0.000;2023-03-09T08:21:50;11.80;98.40
66710;DHT22;53624;0.000;0.000;2023-03-09T08:24:17;12.10;97.90
66710;DHT22;53624;0.000;0.000;2023-03-09T08:26:45;12.70;96.90
66710;DHT22;53624;0.000;0.000;2023-03-09T08:29:12;13.30;95.80
66710;DHT22;53624;0.000;0.000;2023-03-09T08:31:40;14.00;94.70
66710;DHT22;53624;0.000;0.000;2023-03-09T08:34:07;14.40;93.70
66710;DHT22;53624;0.000;0.000;2023-03-09T08:36:37;14.60;93.20
66710;DHT22;53624;0.000;0.000;2023-03-09T08:39:05;14.70;93.10
66710;DHT22;53624;0.000;0.000;2023-03-09T08:41:32;15.10;92.60
66710;DHT22;53624;0.000;0.000;2023-03-09T08:44:00;15.30;92.30
66710;DHT22;53624;0.000;0.000;2023-03-09T08:46:27;14.70;93.00
66710;DHT22;53624;0.000;0.000;2023-03-09T08:48:55;14.30;93.80
66710;DHT22;53624;0.000;0.000;2023-03-09T08:51:23;14.30;94.30
66710;DHT22;53624;0.000;0.000;2023-03-09T08:53:52;14.30;94.40
66710;DHT22;53624;0.000;0.000;2023-03-09T08:56:19;14.10;94.80
66710;DHT22;53624;0.000;0.000;2023-03-09T08:58:47;14.20;94.80
66710;DHT22;53624;0.000;0.000;2023-03-09T09:01:15;14.50;94.60
66710;DHT22;53624;0.000;0.000;2023-03-09T09:03:42;14.60;94.50
66710;DHT22;53624;0.000;0.000;2023-03-09T09:06:11;14.70;94.20
66710;DHT22;53624;0.000;0.000;2023-03-09T09:08:39;14.50;94.50
66710;DHT22;53624;0.000;0.000;2023-03-09T09:11:09;14.20;95.10
66710;DHT22;53624;0.000;0.000;2023-03-09T09:13:37;14.20;95.40
66710;DHT22;53624;0.000;0.000;2023-03-09T09:16:05;14.10;95.50
66710;DHT22;53624;0.000;0.000;2023-03-09T09:18:34;14.00;95.80
66710;DHT22;53624;0.000;0.000;2023-03-09T09:21:02;14.00;96.00
66710;DHT22;53624;0.000;0.000;2023-03-09T09:23:34;14.00;96.20
66710;DHT22;53624;0.000;0.000;2023-03-09T09:26:01;14.00;96.30
66710;DHT22;53624;0.000;0.000;2023-03-09T09:28:30;14.00;96.40
66710;DHT22;53624;0.000;0.000;2023-03-09T09:30:58;14.00;96.50
66710;DHT22;53624;0.000;0.000;2023-03-09T09:33:26;14.10;96.40
66710;DHT22;53624;0.000;0.000;2023-03-09T09:35:55;14.20;96.30
66710;DHT22;53624;0.000;0.000;2023-03-09T09:38:23;14.30;96.20
66710;DHT22;53624;0.000;0.000;2023-03-09T09:40:51;14.30;96.30
66710;DHT22;53624;0.000;0.000;2023-03-09T09:43:20;14.40;96.30
66710;DHT22;53624;0.000;0.000;2023-03-09T09:45:50;14.60;96.20
66710;DHT22;53624;0.000;0.000;2023-03-09T09:48:19;14.60;96.10
66710;DHT22;53624;0.000;0.000;2023-03-09T09:50:52;14.70;96.10
66710;DHT22;53624;0.000;0.000;2023-03-09T09:53:25;14.80;96.10
66710;DHT22;53624;0.000;0.000;2023-03-09T09:55:56;14.80;96.20
66710;DHT22;53624;0.000;0.000;2023-03-09T09:58:27;14.70;96.30
66710;DHT22;53624;0.000;0.000;2023-03-09T10:00:59;14.70;96.40
66710;DHT22;53624;0.000;0.000;2023-03-09T10:03:28;14.60;96.50
66710;DHT22;53624;0.000;0.000;2023-03-09T10:05:58;14.60;96.60
66710;DHT22;53624;0.000;0.000;2023-03-09T10:08:30;14.60;96.70
66710;DHT22;53624;0.000;0.000;2023-03-09T10:11:03;14.60;96.80
66710;DHT22;53624;0.000;0.000;2023-03-09T10:13:33;14.60;96.90
66710;DHT22;53624;0.000;0.000;2023-03-09T10:16:04;14.60;96.90
66710;DHT22;53624;0.000;0.000;2023-03-09T10:18:33;14.70;96.90
66710;DHT22;53624;0.000;0.000;2023-03-09T10:21:01;14.80;96.90
66710;DHT22;53624;0.000;0.000;2023-03-09T10:23:31;14.90;96.90
66710;DHT22;53624;0.000;0.000;2023-03-09T10:26:00;14.90;96.90
66710;DHT22;53624;0.000;0.000;2023-03-09T10:28:33;15.00;96.80
66710;DHT22;53624;0.000;0.000;2023-03-09T10:31:04;15.00;96.70
66710;DHT22;53624;0.000;0.000;2023-03-09T10:33:35;15.10;96.70
66710;DHT22;53624;0.000;0.000;2023-03-09T10:36:05;15.20;96.60
66710;DHT22;53624;0.000;0.000;2023-03-09T10:38:34;15.30;96.70
66710;DHT22;53624;0.000;0.000;2023-03-09T10:41:03;15.30;96.60
66710;DHT22;53624;0.000;0.000;2023-03-09T10:43:33;15.40;96.60
66710;DHT22;53624;0.000;0.000;2023-03-09T10:46:08;15.50;96.50
66710;DHT22;53624;0.000;0.000;2023-03-09T10:48:38;15.60;96.60
66710;DHT22;53624;0.000;0.000;2023-03-09T10:51:06;15.60;96.50
66710;DHT22;53624;0.000;0.000;2023-03-09T10:53:46;15.60;96.60
66710;DHT22;53624;0.000;0.000;2023-03-09T10:56:15;15.80;96.50
66710;DHT22;53624;0.000;0.000;2023-03-09T10:58:43;15.80;96.50
66710;DHT22;53624;0.000;0.000;2023-03-09T11:01:22;15.90;96.60
66710;DHT22;53624;0.000;0.000;2023-03-09T11:03:51;16.20;96.30
66710;DHT22;53624;0.000;0.000;2023-03-09T11:06:28;16.50;95.90
66710;DHT22;53624;0.000;0.000;2023-03-09T11:09:04;16.80;95.60
66710;DHT22;53624;0.000;0.000;2023-03-09T11:11:34;16.90;95.50
66710;DHT22;53624;0.000;0.000;2023-03-09T11:14:03;17.10;95.50
66710;DHT22;53624;0.000;0.000;2023-03-09T11:16:32;17.40;95.20
66710;DHT22;53624;0.000;0.000;2023-03-09T11:19:05;17.50;95.10
66710;DHT22;53624;0.000;0.000;2023-03-09T11:21:33;17.60;95.10
66710;DHT22;53624;0.000;0.000;2023-03-09T11:24:02;17.70;94.90
66710;DHT22;53624;0.000;0.000;2023-03-09T11:26:31;17.80;94.90
66710;DHT22;53624;0.000;0.000;2023-03-09T11:28:59;18.00;94.70
66710;DHT22;53624;0.000;0.000;2023-03-09T11:31:32;18.00;94.80
66710;DHT22;53624;0.000;0.000;2023-03-09T11:34:01;17.90;95.00
66710;DHT22;53624;0.000;0.000;2023-03-09T11:36:31;17.80;95.20
66710;DHT22;53624;0.000;0.000;2023-03-09T11:39:00;17.80;95.40
66710;DHT22;53624;0.000;0.000;2023-03-09T11:41:30;17.70;95.50
66710;DHT22;53624;0.000;0.000;2023-03-09T11:43:59;17.80;95.60
66710;DHT22;53624;0.000;0.000;2023-03-09T11:46:28;17.90;95.50
66710;DHT22;53624;0.000;0.000;2023-03-09T11:49:01;18.00;95.30
66710;DHT22;53624;0.000;0.000;2023-03-09T11:51:34;18.10;95.20
66710;DHT22;53624;0.000;0.000;2023-03-09T11:54:04;18.20;95.30
66710;DHT22;53624;0.000;0.000;2023-03-09T11:56:34;18.20;95.20
66710;DHT22;53624;0.000;0.000;2023-03-09T11:59:05;18.30;95.10
66710;DHT22;53624;0.000;0.000;2023-03-09T12:01:35;18.40;95.10
66710;DHT22;53624;0.000;0.000;2023-03-09T12:04:06;18.40;95.00
66710;DHT22;53624;0.000;0.000;2023-03-09T12:06:37;18.50;95.00
66710;DHT22;53624;0.000;0.000;2023-03-09T12:09:07;18.50;95.00
66710;DHT22;53624;0.000;0.000;2023-03-09T12:11:36;18.50;95.00
66710;DHT22;53624;0.000;0.000;2023-03-09T12:14:06;18.60;95.00
66710;DHT22;53624;0.000;0.000;2023-03-09T12:16:39;18.60;95.00
66710;DHT22;53624;0.000;0.000;2023-03-09T12:19:13;18.70;95.00
66710;DHT22;53624;0.000;0.000;2023-03-09T12:21:43;18.80;94.80
66710;DHT22;53624;0.000;0.000;2023-03-09T12:26:57;19.00;94.50
66710;DHT22;53624;0.000;0.000;2023-03-09T12:29:27;19.10;94.60
66710;DHT22;53624;0.000;0.000;2023-03-09T12:34:44;19.10;94.60
66710;DHT22;53624;0.000;0.000;2023-03-09T12:39:58;19.30;94.40
66710;DHT22;53624;0.000;0.000;2023-03-09T12:42:29;19.60;94.20
66710;DHT22;53624;0.000;0.000;2023-03-09T12:45:02;19.80;93.80
66710;DHT22;53624;0.000;0.000;2023-03-09T12:47:35;20.10;93.50
66710;DHT22;53624;0.000;0.000;2023-03-09T12:50:05;20.40;93.20
66710;DHT22;53624;0.000;0.000;2023-03-09T12:52:35;20.50;93.00
66710;DHT22;53624;0.000;0.000;2023-03-09T12:55:16;20.70;93.00
66710;DHT22;53624;0.000;0.000;2023-03-09T12:57:44;20.80;92.90
66710;DHT22;53624;0.000;0.000;2023-03-09T13:00:22;20.80;93.00
66710;DHT22;53624;0.000;0.000;2023-03-09T13:02:51;20.90;92.60
66710;DHT22;53624;0.000;0.000;2023-03-09T13:05:29;20.90;92.70
66710;DHT22;53624;0.000;0.000;2023-03-09T13:08:01;20.90;92.50
66710;DHT22;53624;0.000;0.000;2023-03-09T13:10:31;20.90;92.50
66710;DHT22;53624;0.000;0.000;2023-03-09T13:15:45;21.10;92.40
66710;DHT22;53624;0.000;0.000;2023-03-09T13:18:21;21.30;92.10
66710;DHT22;53624;0.000;0.000;2023-03-09T13:20:50;21.50;92.00
66710;DHT22;53624;0.000;0.000;2023-03-09T13:23:19;21.60;91.80
66710;DHT22;53624;0.000;0.000;2023-03-09T13:25:49;21.70;91.50
66710;DHT22;53624;0.000;0.000;2023-03-09T13:28:21;21.90;91.50
66710;DHT22;53624;0.000;0.000;2023-03-09T13:30:50;22.00;91.60
66710;DHT22;53624;0.000;0.000;2023-03-09T13:33:19;22.00;91.50
66710;DHT22;53624;0.000;0.000;2023-03-09T13:35:50;22.00;91.50
66710;DHT22;53624;0.000;0.000;2023-03-09T13:38:20;22.10;91.40
66710;DHT22;53624;0.000;0.000;2023-03-09T13:40:49;22.20;91.20
66710;DHT22;53624;0.000;0.000;2023-03-09T13:43:18;22.30;91.20
66710;DHT22;53624;0.000;0.000;2023-03-09T13:45:57;22.30;91.00
66710;DHT22;53624;0.000;0.000;2023-03-09T13:48:25;22.30;90.80
66710;DHT22;53624;0.000;0.000;2023-03-09T13:50:54;22.30;90.80
66710;DHT22;53624;0.000;0.000;2023-03-09T13:53:22;22.30;91.00
66710;DHT22;53624;0.000;0.000;2023-03-09T13:55:54;22.30;91.10
66710;DHT22;53624;0.000;0.000;2023-03-09T13:58:21;22.20;90.90
66710;DHT22;53624;0.000;0.000;2023-03-09T14:00:51;22.10;91.10
66710;DHT22;53624;0.000;0.000;2023-03-09T14:03:19;22.00;91.30
66710;DHT22;53624;0.000;0.000;2023-03-09T14:05:56;21.90;91.40
66710;DHT22;53624;0.000;0.000;2023-03-09T14:08:24;21.70;91.50
66710;DHT22;53624;0.000;0.000;2023-03-09T14:10:52;21.60;91.50
66710;DHT22;53624;0.000;0.000;2023-03-09T14:13:20;21.60;91.60
66710;DHT22;53624;0.000;0.000;2023-03-09T14:15:58;21.60;91.60
66710;DHT22;53624;0.000;0.000;2023-03-09T14:18:30;21.50;91.80
66710;DHT22;53624;0.000;0.000;2023-03-09T14:21:01;21.50;91.70
66710;DHT22;53624;0.000;0.000;2023-03-09T14:23:32;21.60;91.60
66710;DHT22;53624;0.000;0.000;2023-03-09T14:26:02;21.50;91.60
66710;DHT22;53624;0.000;0.000;2023-03-09T14:28:30;21.50;91.70
66710;DHT22;53624;0.000;0.000;2023-03-09T14:31:07;21.50;91.70
66710;DHT22;53624;0.000;0.000;2023-03-09T14:33:38;21.40;91.70
66710;DHT22;53624;0.000;0.000;2023-03-09T14:36:12;21.30;91.80
66710;DHT22;53624;0.000;0.000;2023-03-09T14:38:50;21.20;91.90
66710;DHT22;53624;0.000;0.000;2023-03-09T14:41:19;21.10;92.20
66710;DHT22;53624;0.000;0.000;2023-03-09T14:43:47;21.00;92.30
66710;DHT22;53624;0.000;0.000;2023-03-09T14:46:15;20.90;92.40
66710;DHT22;53624;0.000;0.000;2023-03-09T14:48:47;20.80;92.10
66710;DHT22;53624;0.000;0.000;2023-03-09T14:51:17;20.70;92.60
66710;DHT22;53624;0.000;0.000;2023-03-09T14:53:49;20.60;92.70
66710;DHT22;53624;0.000;0.000;2023-03-09T14:56:17;20.50;92.70
66710;DHT22;53624;0.000;0.000;2023-03-09T14:58:44;20.40;92.80
66710;DHT22;53624;0.000;0.000;2023-03-09T15:01:12;20.30;92.90
66710;DHT22;53624;0.000;0.000;2023-03-09T15:03:40;20.30;92.80
66710;DHT22;53624;0.000;0.000;2023-03-09T15:06:08;20.20;92.90
66710;DHT22;53624;0.000;0.000;2023-03-09T15:08:37;20.10;92.80
66710;DHT22;53624;0.000;0.000;2023-03-09T15:11:04;20.10;92.90
66710;DHT22;53624;0.000;0.000;2023-03-09T15:13:32;20.00;92.70
66710;DHT22;53624;0.000;0.000;2023-03-09T15:16:00;19.90;92.90
66710;DHT22;53624;0.000;0.000;2023-03-09T15:18:28;19.90;92.90
66710;DHT22;53624;0.000;0.000;2023-03-09T15:20:56;19.80;93.00
66710;DHT22;53624;0.000;0.000;2023-03-09T15:23:25;19.70;92.80
66710;DHT22;53624;0.000;0.000;2023-03-09T15:25:54;19.60;93.00
66710;DHT22;53624;0.000;0.000;2023-03-09T15:28:21;19.60;92.90
66710;DHT22;53624;0.000;0.000;2023-03-09T15:30:49;19.50;92.70
66710;DHT22;53624;0.000;0.000;2023-03-09T15:33:16;19.50;92.80
66710;DHT22;53624;0.000;0.000;2023-03-09T15:35:44;19.40;92.90
66710;DHT22;53624;0.000;0.000;2023-03-09T15:38:11;19.30;93.00
66710;DHT22;53624;0.000;0.000;2023-03-09T15:40:39;19.30;93.00
66710;DHT22;53624;0.000;0.000;2023-03-09T15:43:09;19.20;93.00
66710;DHT22;53624;0.000;0.000;2023-03-09T15:45:39;19.10;93.00
66710;DHT22;53624;0.000;0.000;2023-03-09T15:48:06;19.00;93.00
66710;DHT22;53624;0.000;0.000;2023-03-09T15:50:34;18.90;93.10
66710;DHT22;53624;0.000;0.000;2023-03-09T15:53:04;18.90;93.20
66710;DHT22;53624;0.000;0.000;2023-03-09T15:55:32;18.80;93.20
66710;DHT22;53624;0.000;0.000;2023-03-09T15:57:59;18.70;93.30
66710;DHT22;53624;0.000;0.000;2023-03-09T16:00:28;18.70;93.40
66710;DHT22;53624;0.000;0.000;2023-03-09T16:03:00;18.60;93.40
66710;DHT22;53624;0.000;0.000;2023-03-09T16:05:28;18.50;93.60
66710;DHT22;53624;0.000;0.000;2023-03-09T16:07:55;18.40;93.60
66710;DHT22;53624;0.000;0.000;2023-03-09T16:10:23;18.40;93.60
66710;DHT22;53624;0.000;0.000;2023-03-09T16:12:51;18.30;93.70
66710;DHT22;53624;0.000;0.000;2023-03-09T16:15:19;18.30;94.00